Aérodrome :
LOGIN :

S'inscrire | Disclaimer

   EN    FR    IT 

 










Légende :    VFR   VFR Marginal   IFR   IFR Intensif   IFR Très Intensif
Visi : 
Plafond : 
>= 8 km
>= 3000ft
5 à 8 km
1000 à 3000 ft
1500m à 5 km
500 à 1000 ft
800 à 1500m
200 à 500 ft
< 800m
< 200 ft
Symboles :   Orages  Brouillard  Fortes neiges  Fortes précipitations  Vent > 20 kt
SIGMETs :   Divers  Orages  Givrage  Turbulence  Onde Orograph.  Cendres Volcan.






- Altitude de l'aérodrome : 289 ft


LFYR - Romorantin Pruniers

DERNIER METAR :
  • 290830Z AUTO 06010KT 360V100 9999 SCT036 14/04 Q1016

METARs EXPIRÉS :
  • 290800Z AUTO 02006KT 300V080 9999 FEW032 13/04 Q1016
  • 290730Z AUTO 03006KT 330V090 CAVOK 13/04 Q1017
  • 290700Z AUTO 01006KT 310V060 CAVOK 12/05 Q1017
  • 290630Z AUTO 04006KT 340V080 CAVOK 12/05 Q1017
  • 290600Z AUTO 03005KT 310V070 CAVOK 11/05 Q1017

Prévision TAF périmée.



MET'MAP, la Météo Aéronautique d'un coup d'oeil ! - Copyright ORBIFLY Décembre 2007 - Disclaimer

ORBIFLY MET'MAP TEAM :

Programmation & Développement : Alexandra Zaïnal
Sur une idée originale de : Baudouin d'Aumeries
Soutien technique & logistique : Manuel Goepfert
Assistance : Marc-Olivier Méhu

Contact : metmap@orbifly.com




SOURCES & CREDITS :

   NOAA